CheckWX is a tool to help pilots better visualize weather data.  It is not intended as a substitute for an official pre-flight weather briefing.

07:22:36 UTC

GMME TAF
Rabat-Salé Airport
Rabat, Morocco
TAF GMME 190500Z 1906/2012 34010KT 8000 SCT013 SCT020 TEMPO 2000/2006 16004KT BKN013

Jun-19@
06:00 UTC

Jun-19 @ 06:00 UTC

Jun-20@
12:00 UTC

Jun-20 @ 12:00 UTC

TAF GMME 190500Z 1906/2012 34010KT 8000 SCT013 SCT020
Wind
  • 340° at 10 KTS
Cloud Levels
  • Scattered at 1,300' AGL
  • Scattered at 2,000' AGL

Jun-20@
00:00 UTC

Jun-20 @ 00:00 UTC

Jun-20@
06:00 UTC

Jun-20 @ 06:00 UTC

TEMPO 2000/2006 16004KT BKN013

Temporary

Temporary Changes expected for less than half the time period

Wind
  • 160° at 4 KTS
Cloud Levels
  • Broken at 1,300' AGL